Time;durP1;ratioP1;P1;durP2;ratioP2;P2;SDS_P1;SDS_P2;PMS_P1;PMS_P2;Temp;Humidity;BMP_temperature;BMP_pressure;BME280_temperature;BME280_humidity;BME280_pressure;Samples;Min_cycle;Max_cycle;Signal;HPM_P1;HPM_P2
2024/03/01 00:02:07;;;;;;;6.47;5.95;;;9.40;99.90;;;;;;5012580;28;20371;-85
2024/03/01 00:04:32;;;;;;;7.18;6.55;;;9.40;99.90;;;;;;5012096;28;20026;-86
2024/03/01 00:06:58;;;;;;;6.90;6.20;;;9.40;99.90;;;;;;5011389;28;20072;-86
2024/03/01 00:09:23;;;;;;;8.82;5.82;;;9.40;99.90;;;;;;5012705;28;20103;-87
2024/03/01 00:11:49;;;;;;;7.43;6.30;;;9.40;99.90;;;;;;5012887;28;20076;-85
2024/03/01 00:14:14;;;;;;;6.20;5.70;;;9.50;99.90;;;;;;5010756;28;20014;-87
2024/03/01 00:16:40;;;;;;;6.50;5.60;;;9.40;99.90;;;;;;5007007;28;20022;-85
2024/03/01 00:19:05;;;;;;;5.80;5.25;;;9.50;99.90;;;;;;5011467;28;20497;-84
2024/03/01 00:21:31;;;;;;;5.82;5.32;;;9.50;99.90;;;;;;5012142;28;20524;-84
2024/03/01 00:23:56;;;;;;;6.07;5.57;;;9.50;99.90;;;;;;5012045;28;20037;-85
2024/03/01 00:26:22;;;;;;;6.28;5.57;;;9.50;99.90;;;;;;5011814;28;20078;-85
2024/03/01 00:28:47;;;;;;;6.75;6.15;;;9.40;99.90;;;;;;5012175;28;20112;-85
2024/03/01 00:31:13;;;;;;;5.40;4.90;;;9.50;99.90;;;;;;5009831;28;20331;-85
2024/03/01 00:33:38;;;;;;;5.22;4.80;;;9.50;99.90;;;;;;5007941;28;20030;-84
2024/03/01 00:36:04;;;;;;;6.72;4.78;;;9.50;99.90;;;;;;5009520;28;20029;-85
2024/03/01 00:38:30;;;;;;;7.13;5.72;;;9.50;99.90;;;;;;5005807;28;20489;-84
2024/03/01 00:40:56;;;;;;;4.95;4.55;;;9.50;99.90;;;;;;5007319;28;20472;-85
2024/03/01 00:43:21;;;;;;;5.53;5.00;;;9.40;99.90;;;;;;5015672;28;20444;-85
2024/03/01 00:45:47;;;;;;;6.28;5.68;;;9.40;99.90;;;;;;5014988;28;20133;-84
2024/03/01 00:48:13;;;;;;;5.72;5.13;;;9.40;99.90;;;;;;5015416;28;20119;-85
2024/03/01 00:50:40;;;;;;;5.65;4.72;;;9.50;99.90;;;;;;5015639;28;20042;-84
2024/03/01 00:53:06;;;;;;;9.02;4.72;;;9.50;99.90;;;;;;5015327;28;20112;-85
2024/03/01 00:55:33;;;;;;;5.18;4.75;;;9.40;99.90;;;;;;5012144;28;20595;-85
2024/03/01 00:57:59;;;;;;;6.47;5.72;;;9.40;99.90;;;;;;5012893;28;21048;-85
2024/03/01 01:00:25;;;;;;;5.80;5.28;;;9.50;99.90;;;;;;5013688;28;20041;-85
2024/03/01 01:02:50;;;;;;;5.10;4.70;;;9.40;99.90;;;;;;5013555;28;20037;-85
2024/03/01 01:05:16;;;;;;;4.95;4.35;;;9.40;99.90;;;;;;5014557;28;20033;-85
2024/03/01 01:07:42;;;;;;;5.55;5.05;;;9.40;99.90;;;;;;5013603;28;20022;-86
2024/03/01 01:10:08;;;;;;;6.82;4.63;;;9.50;99.90;;;;;;5013293;28;20474;-86
2024/03/01 01:12:34;;;;;;;5.55;5.10;;;9.50;99.90;;;;;;5015869;28;20030;-86
2024/03/01 01:14:59;;;;;;;5.28;4.70;;;9.50;99.90;;;;;;5014769;28;20378;-87
2024/03/01 01:17:26;;;;;;;4.80;4.30;;;9.50;99.90;;;;;;5012877;28;20030;-87
2024/03/01 01:19:56;;;;;;;5.05;4.55;;;9.50;99.90;;;;;;5014591;28;20034;-86
2024/03/01 01:22:21;;;;;;;5.18;4.60;;;9.50;99.90;;;;;;5013776;28;20037;-86
2024/03/01 01:24:47;;;;;;;5.07;4.25;;;9.50;99.90;;;;;;5014026;28;20037;-86
2024/03/01 01:27:12;;;;;;;4.90;4.50;;;9.50;99.90;;;;;;5014142;28;20063;-86
2024/03/01 01:29:38;;;;;;;4.85;4.45;;;9.50;99.90;;;;;;5012651;28;20406;-86
2024/03/01 01:32:04;;;;;;;4.80;4.40;;;9.60;99.90;;;;;;5015597;28;20026;-87
2024/03/01 01:34:29;;;;;;;5.40;4.78;;;9.60;99.90;;;;;;4996865;28;20571;-85
2024/03/01 01:36:55;;;;;;;5.25;4.75;;;9.60;99.90;;;;;;4996931;28;20513;-86
2024/03/01 01:39:21;;;;;;;5.47;4.05;;;9.50;99.90;;;;;;5013933;28;20104;-86
2024/03/01 01:41:46;;;;;;;4.93;4.53;;;9.60;99.90;;;;;;5011899;28;20022;-86
2024/03/01 01:44:12;;;;;;;5.03;4.18;;;9.50;99.90;;;;;;5014249;28;20486;-86
2024/03/01 01:46:38;;;;;;;5.97;4.45;;;9.60;99.90;;;;;;5014636;28;20053;-85
2024/03/01 01:49:05;;;;;;;4.80;4.38;;;9.60;99.90;;;;;;5013720;28;20034;-85
2024/03/01 01:51:31;;;;;;;6.55;4.00;;;9.60;99.90;;;;;;5014143;28;20172;-86
2024/03/01 01:53:57;;;;;;;4.28;3.83;;;9.60;99.90;;;;;;5014207;28;20033;-86
2024/03/01 01:56:24;;;;;;;5.70;4.38;;;9.60;99.90;;;;;;5013144;28;20038;-86
2024/03/01 01:58:51;;;;;;;5.05;4.15;;;9.60;99.90;;;;;;5000427;28;20037;-86
2024/03/01 02:01:18;;;;;;;4.90;4.50;;;9.60;99.90;;;;;;4995211;28;20052;-87
2024/03/01 02:03:45;;;;;;;4.95;4.55;;;9.60;99.90;;;;;;5012199;28;20034;-86
2024/03/01 02:06:11;;;;;;;4.70;4.30;;;9.60;99.90;;;;;;5014035;28;20034;-86
2024/03/01 02:08:39;;;;;;;4.57;4.25;;;9.60;99.90;;;;;;5014819;28;20021;-87
2024/03/01 02:11:05;;;;;;;4.93;4.40;;;9.60;99.90;;;;;;5013486;28;20034;-87
2024/03/01 02:13:31;;;;;;;4.75;4.35;;;9.60;99.90;;;;;;5014007;28;20054;-88
2024/03/01 02:15:57;;;;;;;4.78;4.38;;;9.60;99.90;;;;;;5012331;28;20038;-86
2024/03/01 02:18:23;;;;;;;4.10;3.80;;;9.60;99.90;;;;;;5013613;28;20081;-86
2024/03/01 02:21:08;;;;;;;5.38;4.32;;;9.60;99.90;;;;;;5009430;28;20029;-87
2024/03/01 02:23:34;;;;;;;4.20;3.90;;;9.60;99.90;;;;;;5006855;28;20117;-86
2024/03/01 02:26:00;;;;;;;4.50;4.10;;;9.60;99.90;;;;;;5012489;28;20120;-86
2024/03/01 02:28:26;;;;;;;5.03;4.28;;;9.60;99.90;;;;;;5014889;28;20030;-86
2024/03/01 02:30:51;;;;;;;4.75;4.35;;;9.60;99.90;;;;;;5013945;28;20030;-86
2024/03/01 02:33:20;;;;;;;5.38;4.88;;;9.60;99.90;;;;;;5013632;28;20022;-87
2024/03/01 02:35:46;;;;;;;4.63;4.32;;;9.60;99.90;;;;;;5014738;28;20030;-86
2024/03/01 02:38:12;;;;;;;4.50;4.13;;;9.70;99.90;;;;;;5001171;28;20414;-85
2024/03/01 02:40:39;;;;;;;7.57;4.63;;;9.70;99.90;;;;;;4997209;28;20041;-86
2024/03/01 02:43:06;;;;;;;4.68;4.28;;;9.70;99.90;;;;;;4994798;28;20036;-85
2024/03/01 02:45:32;;;;;;;4.82;4.43;;;9.60;99.90;;;;;;4994661;28;20054;-86
2024/03/01 02:47:58;;;;;;;5.53;5.00;;;9.50;99.90;;;;;;4994502;28;20027;-85
2024/03/01 02:50:24;;;;;;;9.13;3.67;;;9.50;99.90;;;;;;5013935;28;20497;-86
2024/03/01 02:52:49;;;;;;;2.72;1.70;;;9.30;99.90;;;;;;5013969;28;20148;-85
2024/03/01 02:55:20;;;;;;;3.97;1.35;;;9.10;99.90;;;;;;5012664;28;20021;-85
2024/03/01 02:57:51;;;;;;;5.82;1.38;;;8.80;99.90;;;;;;5014317;28;20125;-85
2024/03/01 03:00:17;;;;;;;4.22;1.05;;;8.50;99.90;;;;;;5014514;28;20029;-87
2024/03/01 03:02:43;;;;;;;5.10;1.38;;;8.40;99.90;;;;;;5011496;28;20026;-86
2024/03/01 03:05:09;;;;;;;4.20;1.58;;;8.20;99.90;;;;;;5012585;28;20579;-87
2024/03/01 03:07:36;;;;;;;3.90;1.20;;;8.00;99.90;;;;;;5014579;28;20037;-86
2024/03/01 03:10:02;;;;;;;10.25;1.42;;;7.90;99.90;;;;;;5007356;28;20041;-86
2024/03/01 03:12:28;;;;;;;2.55;1.05;;;7.80;99.90;;;;;;4995206;28;20018;-85
2024/03/01 03:14:54;;;;;;;4.15;0.93;;;7.70;99.90;;;;;;4996066;28;20117;-85
2024/03/01 03:17:20;;;;;;;2.47;0.80;;;7.70;99.90;;;;;;5013671;28;20044;-85
2024/03/01 03:19:48;;;;;;;4.68;0.80;;;7.60;99.90;;;;;;5013737;28;20026;-85
2024/03/01 03:22:14;;;;;;;2.20;0.60;;;7.60;99.90;;;;;;5012647;28;20022;-86
2024/03/01 03:24:40;;;;;;;5.07;1.17;;;7.50;99.90;;;;;;5011376;28;20504;-85
2024/03/01 03:27:06;;;;;;;2.50;0.52;;;7.50;99.90;;;;;;5013843;28;20041;-86
2024/03/01 03:29:31;;;;;;;3.90;1.20;;;7.50;99.90;;;;;;5012797;28;20021;-86
2024/03/01 03:31:57;;;;;;;3.85;0.63;;;7.50;99.90;;;;;;5012911;28;20425;-85
2024/03/01 03:34:22;;;;;;;1.60;0.73;;;7.50;99.90;;;;;;5014136;28;20101;-86
2024/03/01 03:36:49;;;;;;;2.10;0.60;;;7.50;99.90;;;;;;5013213;28;20033;-85
2024/03/01 03:39:15;;;;;;;1.90;0.70;;;7.50;99.90;;;;;;5014040;28;20067;-86
2024/03/01 03:41:41;;;;;;;6.22;0.60;;;7.50;99.90;;;;;;4999811;28;20109;-85
2024/03/01 03:44:06;;;;;;;3.20;0.70;;;7.50;99.90;;;;;;4993023;28;20367;-86
2024/03/01 03:46:32;;;;;;;2.03;0.60;;;7.40;99.90;;;;;;5011774;28;20517;-85
2024/03/01 03:48:57;;;;;;;4.82;0.70;;;7.40;99.90;;;;;;5012306;28;20382;-84
2024/03/01 03:51:25;;;;;;;1.77;0.57;;;7.40;99.90;;;;;;5012081;28;20026;-86
2024/03/01 03:53:51;;;;;;;2.20;0.60;;;7.40;99.90;;;;;;5013167;28;20054;-86
2024/03/01 03:56:18;;;;;;;3.10;0.75;;;7.40;99.90;;;;;;5012008;28;20133;-86
2024/03/01 03:58:43;;;;;;;2.67;0.65;;;7.50;99.90;;;;;;5012364;28;20121;-85
2024/03/01 04:01:09;;;;;;;1.80;0.57;;;7.50;99.90;;;;;;5013033;28;20109;-86
2024/03/01 04:03:34;;;;;;;6.68;0.68;;;7.50;99.90;;;;;;5013566;28;20029;-86
2024/03/01 04:06:00;;;;;;;3.00;0.50;;;7.50;99.90;;;;;;4999085;28;20111;-85
2024/03/01 04:08:26;;;;;;;1.23;1.00;;;7.60;99.90;;;;;;5003262;28;20022;-86
2024/03/01 04:10:51;;;;;;;4.80;0.85;;;7.60;99.90;;;;;;4993741;28;20149;-86
2024/03/01 04:13:17;;;;;;;2.55;0.60;;;7.50;99.90;;;;;;4993574;28;20027;-86
2024/03/01 04:15:43;;;;;;;2.38;0.50;;;7.50;99.90;;;;;;4993241;28;20022;-85
2024/03/01 04:18:10;;;;;;;1.70;0.65;;;7.60;99.90;;;;;;4992854;28;20483;-87
2024/03/01 04:20:36;;;;;;;5.70;0.70;;;7.60;99.90;;;;;;4993653;28;20030;-86
2024/03/01 04:23:04;;;;;;;4.65;0.88;;;7.60;99.90;;;;;;5001118;28;20036;-86
2024/03/01 04:25:32;;;;;;;2.50;1.05;;;7.60;99.90;;;;;;5012747;28;20034;-87
2024/03/01 04:27:57;;;;;;;6.85;1.85;;;7.50;99.90;;;;;;5005861;28;20038;-86
2024/03/01 04:30:23;;;;;;;5.50;1.40;;;7.50;99.90;;;;;;4993411;28;20118;-86
2024/03/01 04:32:49;;;;;;;3.95;1.20;;;7.50;99.90;;;;;;5006659;28;20026;-86
2024/03/01 04:35:15;;;;;;;3.85;1.40;;;7.50;99.90;;;;;;5012682;28;20022;-87
2024/03/01 04:37:42;;;;;;;6.95;2.35;;;7.50;99.90;;;;;;5012945;28;20037;-87
2024/03/01 04:40:09;;;;;;;3.40;1.08;;;7.50;99.90;;;;;;5007312;28;20116;-87
2024/03/01 04:42:36;;;;;;;2.63;1.00;;;7.50;99.90;;;;;;5011626;28;20080;-87
2024/03/01 04:45:02;;;;;;;2.78;1.17;;;7.50;99.90;;;;;;5008295;28;20066;-87
2024/03/01 04:47:28;;;;;;;4.30;1.10;;;7.50;99.90;;;;;;5012300;28;20057;-87
2024/03/01 04:49:53;;;;;;;3.95;1.52;;;7.50;99.90;;;;;;5010644;28;20036;-86
2024/03/01 04:52:19;;;;;;;3.45;1.08;;;7.40;99.90;;;;;;5012397;28;20037;-87
2024/03/01 04:54:46;;;;;;;2.42;1.08;;;7.50;99.90;;;;;;5010979;28;20080;-88
2024/03/01 04:57:11;;;;;;;4.00;1.40;;;7.50;99.90;;;;;;5013024;28;20034;-87
2024/03/01 04:59:39;;;;;;;3.00;1.63;;;7.50;99.90;;;;;;5012702;28;20068;-86
2024/03/01 05:02:06;;;;;;;5.07;1.40;;;7.50;99.90;;;;;;5011683;28;20049;-87
2024/03/01 05:04:31;;;;;;;4.35;1.98;;;7.50;99.90;;;;;;5012515;28;20022;-84
2024/03/01 05:06:57;;;;;;;3.60;1.77;;;7.50;99.90;;;;;;5011857;28;20057;-86
2024/03/01 05:09:22;;;;;;;5.82;1.70;;;7.60;99.90;;;;;;5011889;28;20034;-86
2024/03/01 05:11:48;;;;;;;5.40;2.30;;;7.60;99.90;;;;;;5008879;28;20046;-86
2024/03/01 05:14:13;;;;;;;4.35;1.98;;;7.60;99.90;;;;;;5011033;28;20018;-85
2024/03/01 05:16:39;;;;;;;7.10;1.80;;;7.60;99.90;;;;;;5011624;28;20038;-86
2024/03/01 05:19:04;;;;;;;3.72;1.88;;;7.70;99.90;;;;;;5011938;28;20026;-86
2024/03/01 05:21:30;;;;;;;3.53;1.40;;;7.60;99.90;;;;;;5012294;28;20022;-86
2024/03/01 05:23:55;;;;;;;3.65;1.60;;;7.70;99.90;;;;;;5012431;28;20129;-86
2024/03/01 05:26:21;;;;;;;3.45;1.30;;;7.70;99.90;;;;;;5012625;28;20073;-87
2024/03/01 05:28:46;;;;;;;5.28;1.25;;;7.70;99.90;;;;;;5014411;28;20053;-86
2024/03/01 05:31:12;;;;;;;2.92;0.88;;;7.70;99.90;;;;;;5015319;28;20026;-83
2024/03/01 05:33:37;;;;;;;4.97;1.25;;;7.80;99.90;;;;;;5013012;28;20032;-85
2024/03/01 05:36:05;;;;;;;4.30;1.23;;;7.70;99.90;;;;;;5014219;28;20025;-86
2024/03/01 05:38:32;;;;;;;3.47;1.13;;;7.70;99.90;;;;;;5015293;28;20523;-86
2024/03/01 05:40:58;;;;;;;1.45;0.90;;;7.70;99.90;;;;;;5014774;28;20026;-85
2024/03/01 05:43:23;;;;;;;3.25;1.20;;;7.70;99.90;;;;;;5015143;28;20485;-85
2024/03/01 05:45:50;;;;;;;3.20;1.30;;;7.70;99.90;;;;;;5015262;28;20050;-85
2024/03/01 05:48:16;;;;;;;2.83;1.15;;;7.60;99.90;;;;;;5016034;28;20419;-86
2024/03/01 05:50:42;;;;;;;3.47;1.40;;;7.60;99.90;;;;;;5014812;28;20441;-86
2024/03/01 05:53:14;;;;;;;6.10;1.50;;;7.60;99.90;;;;;;5011354;28;20018;-86
2024/03/01 05:55:40;;;;;;;1.35;1.10;;;7.60;99.90;;;;;;5014419;28;20390;-85
2024/03/01 05:58:06;;;;;;;2.85;1.40;;;7.50;99.90;;;;;;5015181;28;20036;-85
2024/03/01 06:00:32;;;;;;;6.80;1.70;;;7.50;99.90;;;;;;5015772;28;20108;-85
2024/03/01 06:02:57;;;;;;;4.13;1.42;;;7.50;99.90;;;;;;5015497;28;20507;-87
2024/03/01 06:05:23;;;;;;;2.15;1.13;;;7.50;99.90;;;;;;5014448;28;20034;-88
2024/03/01 06:07:49;;;;;;;7.30;1.52;;;7.40;99.90;;;;;;5007481;28;20121;-87
2024/03/01 06:10:16;;;;;;;4.72;1.40;;;7.40;99.90;;;;;;5014309;28;20116;-88
2024/03/01 06:12:42;;;;;;;4.60;1.38;;;7.40;99.90;;;;;;5013835;28;20025;-89
2024/03/01 06:15:07;;;;;;;5.30;1.50;;;7.30;99.90;;;;;;5008360;28;20034;-87
2024/03/01 06:17:33;;;;;;;5.78;2.03;;;7.30;99.90;;;;;;5004257;28;20030;-87
2024/03/01 06:19:59;;;;;;;4.07;1.67;;;7.30;99.90;;;;;;5004410;28;20270;-87
2024/03/01 06:22:25;;;;;;;4.22;1.75;;;7.30;99.90;;;;;;5001389;28;20037;-88
2024/03/01 06:24:50;;;;;;;6.22;2.53;;;7.30;99.90;;;;;;5003636;28;20049;-87
2024/03/01 06:27:16;;;;;;;5.25;1.83;;;7.20;99.90;;;;;;5011142;28;20018;-88
2024/03/01 06:29:42;;;;;;;8.25;1.95;;;7.30;99.90;;;;;;5006788;28;20026;-88
2024/03/01 06:32:10;;;;;;;2.28;1.50;;;7.30;99.90;;;;;;5013636;28;20033;-88
2024/03/01 06:34:36;;;;;;;6.22;1.67;;;7.30;99.90;;;;;;5010897;28;20105;-88
2024/03/01 06:37:02;;;;;;;5.88;1.90;;;7.30;99.90;;;;;;5013102;28;20145;-88
2024/03/01 06:39:27;;;;;;;6.72;2.35;;;7.30;99.90;;;;;;5008328;28;20450;-87
2024/03/01 06:41:53;;;;;;;4.50;2.03;;;7.30;99.90;;;;;;5013620;28;20033;-88
2024/03/01 06:44:23;;;;;;;6.75;2.53;;;7.30;99.90;;;;;;5013573;28;20038;-88
2024/03/01 06:46:49;;;;;;;9.18;2.70;;;7.30;99.90;;;;;;5012698;28;20033;-87
2024/03/01 06:49:15;;;;;;;5.10;2.05;;;7.30;99.90;;;;;;5011248;28;20033;-87
2024/03/01 06:51:40;;;;;;;11.43;2.47;;;7.30;99.90;;;;;;5010907;28;20030;-89
2024/03/01 06:54:06;;;;;;;6.80;2.63;;;7.20;99.90;;;;;;5009317;28;20443;-87
2024/03/01 06:56:31;;;;;;;4.80;2.10;;;7.70;99.90;;;;;;5009000;28;20052;-88
2024/03/01 06:58:57;;;;;;;3.60;2.42;;;7.20;99.90;;;;;;5008711;28;20026;-87
2024/03/01 07:01:22;;;;;;;3.15;2.10;;;7.20;99.90;;;;;;5013536;28;20425;-88
2024/03/01 07:03:48;;;;;;;13.18;3.33;;;7.20;99.90;;;;;;5014262;28;20049;-87
2024/03/01 07:06:13;;;;;;;9.85;2.72;;;7.20;99.90;;;;;;5014169;28;20516;-87
2024/03/01 07:08:39;;;;;;;7.35;3.08;;;7.20;99.90;;;;;;5013807;28;20434;-87
2024/03/01 07:11:05;;;;;;;8.45;3.55;;;7.20;99.90;;;;;;5014455;28;20065;-88
2024/03/01 07:13:30;;;;;;;7.78;3.60;;;7.20;99.90;;;;;;5015005;28;20029;-86
2024/03/01 07:15:56;;;;;;;6.65;3.60;;;7.20;99.90;;;;;;5013810;28;20486;-89
2024/03/01 07:18:21;;;;;;;6.80;3.78;;;7.20;99.90;;;;;;5013545;28;20466;-88
2024/03/01 07:20:47;;;;;;;7.95;4.00;;;7.20;99.90;;;;;;5005383;28;20428;-88
2024/03/01 07:23:12;;;;;;;9.68;4.72;;;7.20;99.90;;;;;;5013384;28;20127;-87
2024/03/01 07:25:38;;;;;;;13.50;5.68;;;7.20;99.90;;;;;;5014128;28;20022;-86
2024/03/01 07:28:04;;;;;;;11.90;6.82;;;7.20;99.90;;;;;;5013665;28;20036;-87
2024/03/01 07:30:30;;;;;;;10.70;5.45;;;7.20;99.90;;;;;;5014389;28;20037;-86
2024/03/01 07:32:55;;;;;;;10.35;6.13;;;7.20;99.90;;;;;;5013967;28;20374;-88
2024/03/01 07:35:21;;;;;;;7.53;5.30;;;7.20;99.90;;;;;;5013560;28;20032;-89
2024/03/01 07:37:46;;;;;;;13.43;6.15;;;7.20;99.90;;;;;;5010544;28;20030;-87
2024/03/01 07:40:12;;;;;;;10.10;5.55;;;7.20;99.90;;;;;;5012903;28;20018;-89
2024/03/01 07:42:39;;;;;;;8.85;5.32;;;7.20;99.90;;;;;;5011137;28;20034;-86
2024/03/01 07:45:05;;;;;;;6.05;5.05;;;7.30;99.90;;;;;;5012295;28;20081;-87
2024/03/01 07:47:31;;;;;;;7.75;5.78;;;7.20;99.90;;;;;;4992938;28;20066;-86
2024/03/01 07:49:57;;;;;;;8.90;6.38;;;7.20;99.90;;;;;;4993255;28;20474;-88
2024/03/01 07:52:27;;;;;;;13.75;7.18;;;7.30;99.90;;;;;;5005821;28;20113;-86
2024/03/01 07:54:53;;;;;;;9.73;7.63;;;7.30;99.90;;;;;;5011178;28;20030;-86
2024/03/01 07:57:18;;;;;;;15.70;9.23;;;7.30;99.90;;;;;;4999589;28;20041;-85
2024/03/01 07:59:44;;;;;;;20.02;9.70;;;7.30;99.90;;;;;;5005877;28;20026;-86
2024/03/01 08:02:10;;;;;;;13.38;8.45;;;7.30;99.90;;;;;;5007332;28;20560;-85
2024/03/01 08:04:36;;;;;;;13.65;9.40;;;7.30;99.90;;;;;;5011354;28;20037;-86
2024/03/01 08:07:02;;;;;;;16.20;9.80;;;7.30;99.90;;;;;;5008102;28;20495;-86
2024/03/01 08:09:36;;;;;;;12.88;9.32;;;7.30;99.90;;;;;;5001294;28;20052;-85
2024/03/01 08:12:04;;;;;;;16.05;10.98;;;7.30;99.90;;;;;;5011913;28;20462;-85
2024/03/01 08:14:32;;;;;;;15.75;10.60;;;7.30;99.90;;;;;;5010200;28;20029;-86
2024/03/01 08:16:57;;;;;;;19.17;10.15;;;7.30;99.90;;;;;;5005905;28;20030;-85
2024/03/01 08:19:34;;;;;;;14.80;10.45;;;7.30;99.90;;;;;;4998944;28;20446;-85
2024/03/01 08:22:15;;;;;;;13.90;10.70;;;7.30;99.90;;;;;;5004265;28;20033;-86
2024/03/01 08:24:46;;;;;;;15.07;8.90;;;7.40;99.90;;;;;;5001332;28;20022;-86
2024/03/01 08:27:19;;;;;;;17.25;9.95;;;7.40;99.90;;;;;;5010258;28;20419;-86
2024/03/01 08:29:45;;;;;;;13.77;8.75;;;7.40;99.90;;;;;;5007005;28;20030;-86
2024/03/01 08:32:31;;;;;;;12.25;8.77;;;7.40;99.90;;;;;;5009499;28;20024;-86
2024/03/01 08:34:58;;;;;;;15.95;9.20;;;7.40;99.90;;;;;;4992819;28;20052;-85
2024/03/01 08:37:27;;;;;;;14.73;9.20;;;7.50;99.90;;;;;;4993384;28;20061;-86
2024/03/01 08:39:53;;;;;;;13.18;8.70;;;7.50;99.90;;;;;;4992388;28;20433;-85
2024/03/01 08:42:20;;;;;;;19.17;9.45;;;7.50;99.90;;;;;;4999239;28;20030;-84
2024/03/01 08:44:59;;;;;;;15.27;8.50;;;7.50;99.90;;;;;;4993009;28;20035;-86
2024/03/01 08:47:31;;;;;;;11.35;8.38;;;7.50;99.90;;;;;;5002435;28;20037;-85
2024/03/01 08:49:56;;;;;;;12.30;8.73;;;7.50;99.90;;;;;;5013250;28;20060;-87
2024/03/01 08:52:35;;;;;;;11.80;8.15;;;7.50;99.90;;;;;;5011618;28;20030;-87
2024/03/01 08:55:20;;;;;;;14.63;7.60;;;7.50;99.90;;;;;;4993348;28;20117;-87
2024/03/01 08:57:48;;;;;;;13.30;7.93;;;7.50;99.90;;;;;;4993031;28;20033;-86
2024/03/01 09:00:43;;;;;;;14.93;7.57;;;7.60;99.90;;;;;;4997046;28;20359;-86
2024/03/01 09:03:14;;;;;;;11.07;7.65;;;7.60;99.90;;;;;;5011131;28;20026;-87
2024/03/01 09:05:40;;;;;;;12.32;7.30;;;7.60;99.90;;;;;;4997553;28;20061;-88
2024/03/01 09:08:13;;;;;;;12.05;7.40;;;7.70;99.90;;;;;;5006091;28;20026;-87
2024/03/01 09:10:39;;;;;;;15.18;7.53;;;7.70;99.90;;;;;;5009642;28;20129;-87
2024/03/01 09:13:05;;;;;;;13.38;7.80;;;7.60;99.90;;;;;;4998201;28;20184;-89
2024/03/01 09:15:42;;;;;;;13.55;7.03;;;7.70;99.90;;;;;;4999518;28;20034;-88
2024/03/01 09:18:23;;;;;;;11.93;7.82;;;7.70;99.90;;;;;;4997731;28;20026;-88
2024/03/01 09:20:49;;;;;;;14.07;8.98;;;7.70;99.90;;;;;;4996058;28;20802;-85
2024/03/01 09:23:15;;;;;;;11.38;6.80;;;7.70;99.90;;;;;;4997269;28;20026;-88
2024/03/01 09:25:43;;;;;;;10.15;7.20;;;7.80;99.90;;;;;;5001056;28;20058;-87
2024/03/01 09:28:09;;;;;;;15.90;7.53;;;7.90;99.90;;;;;;5002247;28;20025;-86
2024/03/01 09:30:35;;;;;;;14.40;6.85;;;7.90;99.90;;;;;;5014426;28;20090;-85
2024/03/01 09:33:01;;;;;;;13.60;7.55;;;7.90;99.90;;;;;;5010812;28;20145;-86
2024/03/01 09:35:27;;;;;;;12.68;6.82;;;7.90;99.90;;;;;;5003705;28;20034;-85
2024/03/01 09:37:55;;;;;;;11.90;6.63;;;7.90;99.90;;;;;;5001369;28;20076;-85
2024/03/01 09:40:57;;;;;;;11.40;6.70;;;7.90;99.90;;;;;;5014524;28;20072;-87
2024/03/01 09:43:25;;;;;;;10.95;6.50;;;8.00;99.90;;;;;;5013866;28;20069;-83
2024/03/01 09:46:09;;;;;;;14.77;5.97;;;7.90;99.90;;;;;;5014047;28;20065;-82
2024/03/01 09:48:44;;;;;;;14.90;6.60;;;8.00;99.90;;;;;;5011773;28;20061;-83
2024/03/01 09:51:44;;;;;;;9.85;5.47;;;8.00;99.90;;;;;;5008683;28;20057;-87
2024/03/01 09:54:22;;;;;;;9.02;4.75;;;8.00;99.90;;;;;;4996571;28;20034;-85
2024/03/01 09:57:10;;;;;;;9.77;4.20;;;8.00;99.90;;;;;;5007718;28;20026;-88
2024/03/01 10:00:03;;;;;;;18.63;5.03;;;8.00;99.90;;;;;;5014685;28;20030;-85
2024/03/01 10:02:41;;;;;;;11.65;5.15;;;8.00;99.90;;;;;;5014430;28;20458;-86
2024/03/01 10:05:24;;;;;;;9.52;4.75;;;8.00;99.90;;;;;;5015478;28;20069;-84
2024/03/01 10:08:21;;;;;;;8.23;3.88;;;8.00;99.90;;;;;;5015564;28;20050;-84
2024/03/01 10:11:12;;;;;;;7.13;3.22;;;8.00;99.90;;;;;;5007320;28;20045;-86
2024/03/01 10:14:00;;;;;;;5.20;3.00;;;8.00;99.90;;;;;;5014751;28;20057;-84
2024/03/01 10:16:53;;;;;;;13.98;3.95;;;8.10;99.90;;;;;;5015013;28;20028;-86
2024/03/01 10:19:51;;;;;;;7.97;3.55;;;8.10;99.90;;;;;;5015073;28;20026;-85
2024/03/01 10:22:48;;;;;;;8.85;3.33;;;8.10;99.90;;;;;;5015068;28;20465;-83
2024/03/01 10:25:25;;;;;;;8.80;3.63;;;8.20;99.90;;;;;;5014729;28;20021;-85
2024/03/01 10:28:28;;;;;;;9.80;4.40;;;8.10;99.90;;;;;;5014807;28;20449;-85
2024/03/01 10:31:12;;;;;;;8.65;3.25;;;8.20;99.90;;;;;;5012422;28;20510;-84
2024/03/01 10:34:01;;;;;;;7.20;4.03;;;8.20;99.90;;;;;;5011572;28;20045;-82
2024/03/01 10:36:42;;;;;;;12.23;3.22;;;8.20;99.90;;;;;;5009990;28;20031;-80
2024/03/01 10:39:09;;;;;;;;;;;8.20;99.90;;;;;;4998603;28;20021;-83
2024/03/01 10:42:00;;;;;;;3.65;2.75;;;8.50;99.90;;;;;;4994705;28;19913;-79
2024/03/01 10:44:38;;;;;;;;;;;8.20;99.90;;;;;;4994393;28;20382;-81
2024/03/01 10:47:13;;;;;;;8.55;2.83;;;8.30;99.90;;;;;;4994253;28;19918;-85
2024/03/01 10:49:51;;;;;;;22.65;3.80;;;8.30;99.90;;;;;;5008326;28;20077;-86
2024/03/01 10:52:19;;;;;;;6.63;3.08;;;8.40;99.90;;;;;;5003355;28;20038;-84
2024/03/01 10:54:51;;;;;;;17.58;3.53;;;9.20;99.90;;;;;;5010819;28;20101;-85
2024/03/01 10:57:19;;;;;;;11.43;4.00;;;8.90;99.90;;;;;;4993321;28;20034;-85
2024/03/01 10:59:47;;;;;;;4.63;3.42;;;8.60;99.90;;;;;;4991132;28;20493;-86
2024/03/01 11:02:20;;;;;;;6.32;2.75;;;8.70;99.90;;;;;;4995530;28;20019;-90
2024/03/01 11:05:14;;;;;;;8.88;3.17;;;8.70;99.90;;;;;;5004110;28;20030;-88
2024/03/01 11:07:53;;;;;;;4.70;2.83;;;8.80;99.90;;;;;;5008340;28;20038;-88
2024/03/01 11:10:44;;;;;;;5.28;2.55;;;8.70;99.90;;;;;;5012730;28;20022;-87
2024/03/01 11:13:17;;;;;;;4.88;2.90;;;8.60;99.90;;;;;;4969370;28;20038;-83
2024/03/01 11:15:43;;;;;;;6.38;2.50;;;8.70;99.90;;;;;;5000162;28;20034;-83
2024/03/01 11:18:14;;;;;;;5.22;2.03;;;8.70;99.90;;;;;;5009323;28;20037;-86
2024/03/01 11:21:05;;;;;;;6.85;2.47;;;8.70;99.90;;;;;;5012195;28;20038;-84
2024/03/01 11:23:34;;;;;;;9.23;3.08;;;8.70;99.90;;;;;;5013601;28;20034;-85
2024/03/01 11:26:13;;;;;;;4.10;2.33;;;8.80;99.90;;;;;;5013019;28;20037;-85
2024/03/01 11:28:42;;;;;;;3.65;1.58;;;8.90;99.90;;;;;;5013370;28;20038;-84
2024/03/01 11:31:14;;;;;;;4.70;2.15;;;9.00;99.90;;;;;;5014118;28;20033;-89
2024/03/01 11:33:43;;;;;;;6.90;2.03;;;9.20;99.90;;;;;;5000569;28;20429;-84
2024/03/01 11:36:28;;;;;;;6.15;1.92;;;9.10;99.90;;;;;;4993432;28;20046;-84
2024/03/01 11:38:59;;;;;;;8.07;1.95;;;9.10;99.90;;;;;;4994476;28;20030;-87
2024/03/01 11:42:17;;;;;;;5.05;1.98;;;9.20;99.90;;;;;;4994159;28;20130;-89
2024/03/01 11:45:10;;;;;;;6.50;1.65;;;9.20;99.90;;;;;;4935596;29;20606;-86
2024/03/01 11:47:57;;;;;;;6.88;2.17;;;9.30;99.90;;;;;;4993029;28;20038;-86
2024/03/01 11:50:46;;;;;;;6.00;1.75;;;9.30;99.90;;;;;;4993908;28;20105;-87
2024/03/01 11:53:33;;;;;;;6.18;1.35;;;9.30;99.90;;;;;;4994608;28;20389;-88
2024/03/01 11:56:18;;;;;;;2.70;1.45;;;9.30;99.90;;;;;;5000066;28;20032;-88
2024/03/01 11:58:55;;;;;;;4.88;2.17;;;9.40;99.90;;;;;;5012237;28;20022;-89
2024/03/01 12:01:50;;;;;;;5.18;1.40;;;9.50;99.90;;;;;;5010936;28;20169;-88
2024/03/01 12:05:00;;;;;;;9.77;1.92;;;9.50;99.90;;;;;;5005106;28;20041;-90
2024/03/01 12:07:42;;;;;;;4.00;1.30;;;9.50;99.90;;;;;;4994786;28;20037;-89
2024/03/01 12:10:13;;;;;;;7.85;1.45;;;9.50;99.90;;;;;;4994787;28;20118;-88
2024/03/01 12:12:50;;;;;;;4.28;1.35;;;9.50;99.90;;;;;;4996596;28;20053;-89
2024/03/01 12:15:46;;;;;;;2.17;1.30;;;9.50;99.90;;;;;;4994420;28;20056;-87
2024/03/01 12:18:24;;;;;;;6.45;1.23;;;9.60;99.90;;;;;;4997810;28;20041;-92
2024/03/01 12:21:19;;;;;;;2.15;1.10;;;9.60;99.90;;;;;;5014040;28;20105;-88
2024/03/01 12:24:02;;;;;;;7.53;1.70;;;9.70;99.90;;;;;;5012245;28;20069;-87
2024/03/01 12:26:32;;;;;;;4.20;1.20;;;9.70;99.90;;;;;;5013711;28;20101;-88
2024/03/01 12:29:19;;;;;;;5.97;1.30;;;9.60;99.90;;;;;;5017450;28;20031;-87
2024/03/01 12:32:10;;;;;;;3.22;0.93;;;9.60;99.90;;;;;;5032864;28;20120;-89
2024/03/01 12:34:48;;;;;;;3.78;0.93;;;9.60;99.90;;;;;;5017334;28;20088;-89
2024/03/01 12:37:26;;;;;;;6.70;1.25;;;9.60;99.90;;;;;;5006626;28;20033;-88
2024/03/01 12:40:15;;;;;;;2.20;1.02;;;9.60;99.90;;;;;;5018249;28;20131;-88
2024/03/01 12:43:07;;;;;;;3.75;1.00;;;9.50;99.90;;;;;;5028150;28;20052;-88
2024/03/01 12:45:55;;;;;;;3.13;0.98;;;9.50;99.90;;;;;;5020440;28;20056;-88
2024/03/01 12:48:35;;;;;;;3.38;0.50;;;9.50;99.90;;;;;;5018891;28;20026;-88
2024/03/01 12:51:16;;;;;;;4.00;1.20;;;9.50;99.90;;;;;;5030977;28;20030;-88
2024/03/01 12:54:04;;;;;;;2.85;0.93;;;9.50;99.90;;;;;;5021521;28;20030;-88
2024/03/01 12:56:34;;;;;;;4.28;0.93;;;9.50;99.90;;;;;;5017530;28;20092;-88
2024/03/01 12:59:45;;;;;;;5.07;1.08;;;9.40;99.90;;;;;;5010000;28;20531;-88
2024/03/01 13:02:25;;;;;;;7.55;1.27;;;9.40;99.90;;;;;;4991587;28;20401;-88
2024/03/01 13:05:26;;;;;;;2.55;1.00;;;9.40;99.90;;;;;;5012898;28;20038;-88
2024/03/01 13:07:57;;;;;;;8.20;1.08;;;9.40;99.90;;;;;;5009338;28;20036;-87
2024/03/01 13:10:24;;;;;;;3.00;0.80;;;9.40;99.90;;;;;;5018708;28;20055;-88
2024/03/01 13:12:57;;;;;;;2.72;0.80;;;9.40;99.90;;;;;;5020675;28;20167;-87
2024/03/01 13:15:25;;;;;;;1.42;0.98;;;9.40;99.90;;;;;;5025964;28;20052;-87